AAY403 KMLB-KCVG
Flight info
| Callsign | AAY403 |
|---|---|
| Flight time | 1h 55m |
| Altitude | 37000 |
| Route | WORMS JEEMY ACCHE PAINN/N0459F380 SHRKS Q77 TEUFL/N0459F390 Q77 WIGVO IRQ/N0458F380 CUBIM JAKIE7 |
| Aircraft | A20N/M-SDE2E3FGHIRWXY/LB1 |
Departure
| Time | 2026-04-20 21:20 |
|---|---|
| Airport | Melbourne Orlando International Airport (KMLB) |
Arrival
| Time | 2026-04-20 23:15 |
|---|---|
| Airport | Cincinnati Northern Kentucky International Airport (KCVG) |
| Time | Latitude | Longitude | Altitude | Speed | Heading |
|---|---|---|---|---|---|
| 2026-04-20 21:08 | 28.09867 | -80.63110 | 33 ft | 0 kts | 116° |
| 2026-04-20 21:09 | 28.09869 | -80.63116 | 33 ft | 2 kts | 117° |
| 2026-04-20 21:10 | 28.09878 | -80.63131 | 33 ft | 2 kts | 128° |
| 2026-04-20 21:10 | 28.09890 | -80.63145 | 32 ft | 2 kts | 143° |
| 2026-04-20 21:10 | 28.09904 | -80.63153 | 30 ft | 2 kts | 166° |
| 2026-04-20 21:10 | 28.09921 | -80.63155 | 30 ft | 2 kts | 187° |
| 2026-04-20 21:11 | 28.09934 | -80.63152 | 32 ft | 1 kts | 194° |
| 2026-04-20 21:11 | 28.09936 | -80.63151 | 31 ft | 0 kts | 193° |
| 2026-04-20 21:12 | 28.09935 | -80.63151 | 31 ft | 0 kts | 193° |
| 2026-04-20 21:12 | 28.09931 | -80.63153 | 32 ft | 1 kts | 195° |
| 2026-04-20 21:12 | 28.09924 | -80.63155 | 30 ft | 1 kts | 198° |
| 2026-04-20 21:12 | 28.09920 | -80.63157 | 31 ft | 2 kts | 207° |
| 2026-04-20 21:13 | 28.09892 | -80.63229 | 32 ft | 13 kts | 270° |
| 2026-04-20 21:13 | 28.09917 | -80.63274 | 31 ft | 6 kts | 309° |
| 2026-04-20 21:13 | 28.09949 | -80.63316 | 32 ft | 10 kts | 306° |
| 2026-04-20 21:13 | 28.09899 | -80.63426 | 32 ft | 22 kts | 223° |
| 2026-04-20 21:14 | 28.09770 | -80.63558 | 33 ft | 26 kts | 221° |
| 2026-04-20 21:14 | 28.09658 | -80.63676 | 37 ft | 11 kts | 235° |
| 2026-04-20 21:14 | 28.09656 | -80.63691 | 36 ft | 0 kts | 289° |
| 2026-04-20 21:14 | 28.09693 | -80.63722 | 38 ft | 16 kts | 331° |
| 2026-04-20 21:15 | 28.09832 | -80.63792 | 36 ft | 27 kts | 336° |
| 2026-04-20 21:15 | 28.10003 | -80.63877 | 38 ft | 27 kts | 337° |
| 2026-04-20 21:15 | 28.10088 | -80.63998 | 37 ft | 18 kts | 269° |
| 2026-04-20 21:15 | 28.10081 | -80.64145 | 40 ft | 20 kts | 265° |
| 2026-04-20 21:16 | 28.10074 | -80.64330 | 39 ft | 27 kts | 266° |
| 2026-04-20 21:16 | 28.10062 | -80.64537 | 39 ft | 25 kts | 268° |
| 2026-04-20 21:16 | 28.10058 | -80.64730 | 40 ft | 24 kts | 266° |
| 2026-04-20 21:16 | 28.10050 | -80.64927 | 38 ft | 24 kts | 267° |
| 2026-04-20 21:17 | 28.10040 | -80.65113 | 39 ft | 23 kts | 268° |
| 2026-04-20 21:17 | 28.10033 | -80.65284 | 40 ft | 21 kts | 268° |
| 2026-04-20 21:17 | 28.10029 | -80.65444 | 41 ft | 19 kts | 264° |
| 2026-04-20 21:17 | 28.10018 | -80.65585 | 42 ft | 20 kts | 266° |
| 2026-04-20 21:18 | 28.10011 | -80.65767 | 44 ft | 23 kts | 266° |
| 2026-04-20 21:18 | 28.10002 | -80.65947 | 46 ft | 22 kts | 266° |
| 2026-04-20 21:18 | 28.10042 | -80.66091 | 46 ft | 20 kts | 342° |
| 2026-04-20 21:18 | 28.10119 | -80.66062 | 44 ft | 8 kts | 76° |
| 2026-04-20 21:19 | 28.10124 | -80.66005 | 43 ft | 10 kts | 87° |
| 2026-04-20 21:19 | 28.10145 | -80.65706 | 44 ft | 71 kts | 87° |
| 2026-04-20 21:19 | 28.10188 | -80.64872 | 40 ft | 140 kts | 83° |
| 2026-04-20 21:20 | 28.10396 | -80.62210 | 678 ft | 206 kts | 83° |
| 2026-04-20 21:20 | 28.10455 | -80.60564 | 1642 ft | 205 kts | 82° |
| 2026-04-20 21:20 | 28.10511 | -80.58919 | 2500 ft | 215 kts | 82° |
| 2026-04-20 21:20 | 28.10637 | -80.57150 | 2943 ft | 233 kts | 75° |
| 2026-04-20 21:21 | 28.11264 | -80.55456 | 3547 ft | 236 kts | 50° |
| 2026-04-20 21:21 | 28.12549 | -80.54313 | 4188 ft | 241 kts | 22° |
| 2026-04-20 21:21 | 28.14226 | -80.54038 | 4827 ft | 250 kts | 359° |
| 2026-04-20 21:21 | 28.15988 | -80.54247 | 5434 ft | 257 kts | 353° |
| 2026-04-20 21:22 | 28.17765 | -80.54549 | 6214 ft | 258 kts | 352° |
| 2026-04-20 21:22 | 28.19550 | -80.54852 | 6953 ft | 261 kts | 352° |
| 2026-04-20 21:22 | 28.21360 | -80.55146 | 7661 ft | 265 kts | 351° |
| 2026-04-20 21:22 | 28.23200 | -80.55437 | 8344 ft | 269 kts | 351° |
| 2026-04-20 21:23 | 28.25073 | -80.55728 | 9080 ft | 273 kts | 350° |
| 2026-04-20 21:23 | 28.26964 | -80.56018 | 9824 ft | 276 kts | 349° |
| 2026-04-20 21:23 | 28.28883 | -80.56314 | 10343 ft | 288 kts | 349° |
| 2026-04-20 21:23 | 28.30938 | -80.56631 | 10614 ft | 308 kts | 350° |
| 2026-04-20 21:24 | 28.33137 | -80.56968 | 10863 ft | 326 kts | 349° |
| 2026-04-20 21:24 | 28.35418 | -80.57458 | 11093 ft | 341 kts | 341° |
| 2026-04-20 21:24 | 28.37612 | -80.58539 | 11434 ft | 347 kts | 326° |
| 2026-04-20 21:24 | 28.39551 | -80.60211 | 11970 ft | 350 kts | 318° |
| 2026-04-20 21:25 | 28.41327 | -80.62115 | 12538 ft | 353 kts | 313° |
| 2026-04-20 21:25 | 28.43015 | -80.64163 | 13145 ft | 356 kts | 311° |
| 2026-04-20 21:25 | 28.44664 | -80.66282 | 13779 ft | 358 kts | 310° |
| 2026-04-20 21:25 | 28.46282 | -80.68396 | 14351 ft | 361 kts | 310° |
| 2026-04-20 21:26 | 28.47940 | -80.70553 | 14947 ft | 364 kts | 310° |
| 2026-04-20 21:26 | 28.49624 | -80.72720 | 15532 ft | 365 kts | 310° |
| 2026-04-20 21:26 | 28.51322 | -80.74880 | 16140 ft | 366 kts | 310° |
| 2026-04-20 21:26 | 28.53031 | -80.77037 | 16713 ft | 368 kts | 309° |
| 2026-04-20 21:27 | 28.54752 | -80.79200 | 17266 ft | 370 kts | 309° |
| 2026-04-20 21:27 | 28.56481 | -80.81369 | 17813 ft | 371 kts | 309° |
| 2026-04-20 21:27 | 28.58223 | -80.83555 | 18367 ft | 373 kts | 309° |
| 2026-04-20 21:27 | 28.59972 | -80.85750 | 18837 ft | 375 kts | 309° |
| 2026-04-20 21:28 | 28.61729 | -80.87959 | 19268 ft | 378 kts | 309° |
| 2026-04-20 21:28 | 28.63497 | -80.90184 | 19710 ft | 380 kts | 309° |
| 2026-04-20 21:28 | 28.65252 | -80.92394 | 20148 ft | 382 kts | 309° |
| 2026-04-20 21:28 | 28.67043 | -80.94650 | 20593 ft | 385 kts | 308° |
| 2026-04-20 21:29 | 28.68843 | -80.96920 | 21041 ft | 387 kts | 308° |
| 2026-04-20 21:29 | 28.70652 | -80.99201 | 21477 ft | 389 kts | 308° |
| 2026-04-20 21:29 | 28.72474 | -81.01501 | 21904 ft | 392 kts | 308° |
| 2026-04-20 21:29 | 28.74307 | -81.03815 | 22339 ft | 394 kts | 308° |
| 2026-04-20 21:30 | 28.76146 | -81.06139 | 22774 ft | 396 kts | 308° |
| 2026-04-20 21:30 | 28.77995 | -81.08476 | 23177 ft | 398 kts | 308° |
| 2026-04-20 21:30 | 28.79857 | -81.10831 | 23585 ft | 400 kts | 308° |
| 2026-04-20 21:30 | 28.81728 | -81.13199 | 23952 ft | 402 kts | 308° |
| 2026-04-20 21:31 | 28.83603 | -81.15573 | 24315 ft | 403 kts | 308° |
| 2026-04-20 21:31 | 28.85479 | -81.17949 | 24684 ft | 403 kts | 308° |
| 2026-04-20 21:31 | 28.87341 | -81.20310 | 25027 ft | 404 kts | 308° |
| 2026-04-20 21:31 | 28.89225 | -81.22701 | 25373 ft | 406 kts | 308° |
| 2026-04-20 21:32 | 28.91119 | -81.25106 | 25700 ft | 407 kts | 308° |
| 2026-04-20 21:32 | 28.92371 | -81.26696 | 25915 ft | 408 kts | 307° |
| 2026-04-20 21:32 | 28.94273 | -81.29113 | 26267 ft | 409 kts | 307° |
| 2026-04-20 21:32 | 28.96179 | -81.31536 | 26588 ft | 410 kts | 307° |
| 2026-04-20 21:33 | 28.98089 | -81.33965 | 26892 ft | 411 kts | 307° |
| 2026-04-20 21:33 | 29.00099 | -81.36313 | 27185 ft | 416 kts | 313° |
| 2026-04-20 21:33 | 29.02402 | -81.38369 | 27474 ft | 424 kts | 320° |
| 2026-04-20 21:33 | 29.04952 | -81.40108 | 27756 ft | 429 kts | 324° |
| 2026-04-20 21:34 | 29.07646 | -81.41623 | 28131 ft | 434 kts | 330° |
| 2026-04-20 21:34 | 29.10502 | -81.42680 | 28538 ft | 441 kts | 339° |
| 2026-04-20 21:34 | 29.13556 | -81.43280 | 28907 ft | 447 kts | 344° |
| 2026-04-20 21:34 | 29.16647 | -81.43671 | 29270 ft | 448 kts | 346° |
| 2026-04-20 21:35 | 29.19759 | -81.43974 | 29647 ft | 448 kts | 347° |
| 2026-04-20 21:35 | 29.22873 | -81.44239 | 30037 ft | 447 kts | 347° |
| 2026-04-20 21:35 | 29.25971 | -81.44495 | 30382 ft | 446 kts | 347° |
| 2026-04-20 21:35 | 29.29066 | -81.44757 | 30709 ft | 445 kts | 346° |
| 2026-04-20 21:36 | 29.32134 | -81.45028 | 31047 ft | 443 kts | 346° |
| 2026-04-20 21:36 | 29.35197 | -81.45307 | 31389 ft | 440 kts | 346° |
| 2026-04-20 21:36 | 29.38252 | -81.45593 | 31718 ft | 439 kts | 345° |
| 2026-04-20 21:36 | 29.41292 | -81.45883 | 32028 ft | 437 kts | 345° |
| 2026-04-20 21:37 | 29.44326 | -81.46173 | 32339 ft | 436 kts | 345° |
| 2026-04-20 21:37 | 29.47303 | -81.46459 | 32640 ft | 434 kts | 345° |
| 2026-04-20 21:37 | 29.50318 | -81.46749 | 32931 ft | 433 kts | 344° |
| 2026-04-20 21:37 | 29.53318 | -81.47037 | 33220 ft | 432 kts | 344° |
| 2026-04-20 21:38 | 29.56310 | -81.47324 | 33495 ft | 431 kts | 344° |
| 2026-04-20 21:38 | 29.59296 | -81.47606 | 33761 ft | 430 kts | 343° |
| 2026-04-20 21:38 | 29.62279 | -81.47881 | 34005 ft | 429 kts | 343° |
| 2026-04-20 21:38 | 29.65257 | -81.48151 | 34245 ft | 429 kts | 343° |
| 2026-04-20 21:39 | 29.68234 | -81.48419 | 34462 ft | 428 kts | 343° |
| 2026-04-20 21:39 | 29.71197 | -81.48685 | 34694 ft | 426 kts | 343° |
| 2026-04-20 21:39 | 29.74150 | -81.48950 | 34934 ft | 424 kts | 343° |
| 2026-04-20 21:39 | 29.77050 | -81.49210 | 35173 ft | 423 kts | 343° |
| 2026-04-20 21:40 | 29.79977 | -81.49475 | 35370 ft | 421 kts | 343° |
| 2026-04-20 21:40 | 29.82901 | -81.49742 | 35551 ft | 421 kts | 343° |
| 2026-04-20 21:40 | 29.85820 | -81.50009 | 35739 ft | 420 kts | 343° |
| 2026-04-20 21:40 | 29.88679 | -81.50443 | 35905 ft | 409 kts | 336° |
| 2026-04-20 21:41 | 29.91412 | -81.51213 | 36082 ft | 402 kts | 333° |
| 2026-04-20 21:41 | 29.94092 | -81.52085 | 36248 ft | 399 kts | 332° |
| 2026-04-20 21:41 | 29.96747 | -81.53004 | 36413 ft | 398 kts | 331° |
| 2026-04-20 21:41 | 29.99387 | -81.53949 | 36569 ft | 396 kts | 331° |
| 2026-04-20 21:42 | 30.02015 | -81.54902 | 36721 ft | 396 kts | 331° |
| 2026-04-20 21:42 | 30.04643 | -81.55856 | 36871 ft | 395 kts | 331° |
| 2026-04-20 21:42 | 30.07261 | -81.56805 | 37023 ft | 394 kts | 331° |
| 2026-04-20 21:42 | 30.09882 | -81.57750 | 37193 ft | 393 kts | 331° |
| 2026-04-20 21:43 | 30.12498 | -81.58691 | 37267 ft | 394 kts | 331° |
| 2026-04-20 21:43 | 30.17765 | -81.60587 | 37277 ft | 397 kts | 331° |
| 2026-04-20 21:44 | 30.23007 | -81.62465 | 37277 ft | 396 kts | 331° |
| 2026-04-20 21:44 | 30.28269 | -81.64352 | 37277 ft | 395 kts | 331° |
| 2026-04-20 21:45 | 30.33527 | -81.66244 | 37279 ft | 395 kts | 331° |
| 2026-04-20 21:45 | 30.38755 | -81.68127 | 37271 ft | 395 kts | 331° |
| 2026-04-20 21:46 | 30.43996 | -81.70016 | 37268 ft | 394 kts | 330° |
| 2026-04-20 21:46 | 30.49244 | -81.71911 | 37268 ft | 394 kts | 330° |
| 2026-04-20 21:47 | 30.54480 | -81.73803 | 37269 ft | 394 kts | 330° |
| 2026-04-20 21:47 | 30.59718 | -81.75698 | 37268 ft | 394 kts | 330° |
| 2026-04-20 21:48 | 30.65103 | -81.77180 | 37275 ft | 403 kts | 336° |
| 2026-04-20 21:48 | 30.70639 | -81.78341 | 37274 ft | 405 kts | 337° |
| 2026-04-20 21:49 | 30.76199 | -81.79437 | 37274 ft | 405 kts | 338° |
| 2026-04-20 21:49 | 30.81754 | -81.80532 | 37277 ft | 405 kts | 338° |
| 2026-04-20 21:50 | 30.87281 | -81.81634 | 37267 ft | 404 kts | 337° |
| 2026-04-20 21:50 | 30.92834 | -81.82749 | 37269 ft | 404 kts | 337° |
| 2026-04-20 21:51 | 30.98384 | -81.83865 | 37269 ft | 404 kts | 337° |
| 2026-04-20 21:51 | 31.03890 | -81.84973 | 37268 ft | 404 kts | 337° |
| 2026-04-20 21:52 | 31.09435 | -81.86091 | 37266 ft | 404 kts | 338° |
| 2026-04-20 21:52 | 31.14966 | -81.87206 | 37266 ft | 403 kts | 338° |
| 2026-04-20 21:53 | 31.20502 | -81.88324 | 37267 ft | 403 kts | 338° |
| 2026-04-20 21:53 | 31.26036 | -81.89442 | 37265 ft | 403 kts | 338° |
| 2026-04-20 21:54 | 31.31524 | -81.90552 | 37272 ft | 403 kts | 338° |
| 2026-04-20 21:54 | 31.37045 | -81.91671 | 37276 ft | 403 kts | 338° |
| 2026-04-20 21:55 | 31.42568 | -81.92790 | 37282 ft | 402 kts | 338° |
| 2026-04-20 21:55 | 31.48080 | -81.93909 | 37287 ft | 402 kts | 338° |
| 2026-04-20 21:56 | 31.53587 | -81.95029 | 37285 ft | 401 kts | 338° |
| 2026-04-20 21:56 | 31.59083 | -81.96148 | 37287 ft | 400 kts | 338° |
| 2026-04-20 21:57 | 31.64571 | -81.97267 | 37289 ft | 400 kts | 338° |
| 2026-04-20 21:57 | 31.70018 | -81.98378 | 37280 ft | 399 kts | 338° |
| 2026-04-20 21:58 | 31.75490 | -81.99497 | 37275 ft | 398 kts | 338° |
| 2026-04-20 21:58 | 31.80947 | -82.00614 | 37268 ft | 398 kts | 338° |
| 2026-04-20 21:59 | 31.86425 | -82.01639 | 37260 ft | 405 kts | 342° |
| 2026-04-20 21:59 | 31.92083 | -82.02003 | 37255 ft | 409 kts | 345° |
| 2026-04-20 22:00 | 31.97797 | -82.02209 | 37259 ft | 409 kts | 345° |
| 2026-04-20 22:00 | 32.03456 | -82.02382 | 37269 ft | 409 kts | 345° |
| 2026-04-20 22:01 | 32.09149 | -82.02565 | 37261 ft | 409 kts | 345° |
| 2026-04-20 22:01 | 32.14835 | -82.02759 | 37258 ft | 408 kts | 345° |
| 2026-04-20 22:02 | 32.20516 | -82.02957 | 37252 ft | 408 kts | 345° |
| 2026-04-20 22:02 | 32.26166 | -82.03153 | 37260 ft | 408 kts | 345° |
| 2026-04-20 22:03 | 32.31861 | -82.03351 | 37261 ft | 408 kts | 345° |
| 2026-04-20 22:03 | 32.37537 | -82.03548 | 37257 ft | 408 kts | 345° |
| 2026-04-20 22:04 | 32.43223 | -82.03746 | 37264 ft | 408 kts | 345° |
| 2026-04-20 22:04 | 32.48832 | -82.04069 | 37257 ft | 404 kts | 343° |
| 2026-04-20 22:05 | 32.54422 | -82.04621 | 37259 ft | 403 kts | 342° |
| 2026-04-20 22:05 | 32.60011 | -82.05210 | 37261 ft | 403 kts | 342° |
| 2026-04-20 22:06 | 32.65594 | -82.05778 | 37254 ft | 404 kts | 343° |
| 2026-04-20 22:06 | 32.71198 | -82.06332 | 37254 ft | 404 kts | 343° |
| 2026-04-20 22:07 | 32.76820 | -82.06883 | 37255 ft | 405 kts | 343° |
| 2026-04-20 22:07 | 32.82440 | -82.07434 | 37250 ft | 405 kts | 343° |
| 2026-04-20 22:08 | 32.88074 | -82.07988 | 37254 ft | 406 kts | 343° |
| 2026-04-20 22:08 | 32.93677 | -82.08540 | 37251 ft | 407 kts | 343° |
| 2026-04-20 22:09 | 32.99365 | -82.09101 | 37250 ft | 408 kts | 343° |
| 2026-04-20 22:09 | 33.04997 | -82.09657 | 37249 ft | 409 kts | 343° |
| 2026-04-20 22:10 | 33.10677 | -82.10220 | 37245 ft | 410 kts | 343° |
| 2026-04-20 22:10 | 33.16371 | -82.10784 | 37240 ft | 411 kts | 343° |
| 2026-04-20 22:11 | 33.22075 | -82.11349 | 37238 ft | 411 kts | 343° |
| 2026-04-20 22:11 | 33.27743 | -82.11911 | 37233 ft | 411 kts | 344° |
| 2026-04-20 22:12 | 33.33454 | -82.12479 | 37235 ft | 412 kts | 344° |
| 2026-04-20 22:12 | 33.39165 | -82.13047 | 37250 ft | 412 kts | 344° |
| 2026-04-20 22:13 | 33.44889 | -82.13618 | 37248 ft | 413 kts | 344° |
| 2026-04-20 22:13 | 33.50619 | -82.14190 | 37249 ft | 413 kts | 344° |
| 2026-04-20 22:14 | 33.56350 | -82.14763 | 37250 ft | 413 kts | 344° |
| 2026-04-20 22:14 | 33.62095 | -82.15338 | 37250 ft | 414 kts | 344° |
| 2026-04-20 22:15 | 33.67805 | -82.15911 | 37247 ft | 414 kts | 344° |
| 2026-04-20 22:15 | 33.73425 | -82.16938 | 37246 ft | 405 kts | 338° |
| 2026-04-20 22:16 | 33.78946 | -82.18315 | 37244 ft | 405 kts | 338° |
| 2026-04-20 22:16 | 33.84475 | -82.19726 | 37239 ft | 406 kts | 338° |
| 2026-04-20 22:17 | 33.89978 | -82.21138 | 37240 ft | 406 kts | 338° |
| 2026-04-20 22:17 | 33.95508 | -82.22560 | 37239 ft | 406 kts | 338° |
| 2026-04-20 22:18 | 34.01049 | -82.23987 | 37231 ft | 407 kts | 338° |
| 2026-04-20 22:18 | 34.06548 | -82.25405 | 37236 ft | 407 kts | 338° |
| 2026-04-20 22:19 | 34.12096 | -82.26838 | 37228 ft | 407 kts | 338° |
| 2026-04-20 22:19 | 34.17641 | -82.28271 | 37228 ft | 407 kts | 338° |
| 2026-04-20 22:20 | 34.23197 | -82.29710 | 37237 ft | 408 kts | 338° |
| 2026-04-20 22:20 | 34.27812 | -82.30907 | 37228 ft | 408 kts | 338° |
| 2026-04-20 22:21 | 34.33369 | -82.32349 | 37232 ft | 408 kts | 338° |
| 2026-04-20 22:21 | 34.38926 | -82.33793 | 37223 ft | 408 kts | 338° |
| 2026-04-20 22:22 | 34.45396 | -82.35478 | 37226 ft | 409 kts | 338° |
| 2026-04-20 22:22 | 34.50026 | -82.36685 | 37211 ft | 409 kts | 338° |
| 2026-04-20 22:23 | 34.55598 | -82.38140 | 37215 ft | 410 kts | 338° |
| 2026-04-20 22:23 | 34.61184 | -82.39600 | 37207 ft | 410 kts | 338° |
| 2026-04-20 22:24 | 34.66768 | -82.41061 | 37217 ft | 410 kts | 338° |
| 2026-04-20 22:24 | 34.72350 | -82.42524 | 37217 ft | 411 kts | 338° |
| 2026-04-20 22:25 | 34.77912 | -82.43984 | 37210 ft | 411 kts | 338° |
| 2026-04-20 22:25 | 34.83515 | -82.45456 | 37223 ft | 411 kts | 338° |
| 2026-04-20 22:26 | 34.89131 | -82.46934 | 37225 ft | 412 kts | 338° |
| 2026-04-20 22:26 | 34.94730 | -82.48410 | 37220 ft | 412 kts | 338° |
| 2026-04-20 22:27 | 35.03170 | -82.50638 | 37217 ft | 414 kts | 338° |
| 2026-04-20 22:27 | 35.08763 | -82.52117 | 37216 ft | 414 kts | 338° |
| 2026-04-20 22:28 | 35.14411 | -82.53613 | 37222 ft | 415 kts | 338° |
| 2026-04-20 22:28 | 35.20062 | -82.55112 | 37238 ft | 416 kts | 338° |
| 2026-04-20 22:29 | 35.25723 | -82.56615 | 37246 ft | 417 kts | 338° |
| 2026-04-20 22:29 | 35.31398 | -82.58125 | 37255 ft | 418 kts | 338° |
| 2026-04-20 22:30 | 35.37052 | -82.59630 | 37256 ft | 418 kts | 338° |
| 2026-04-20 22:30 | 35.42747 | -82.61150 | 37264 ft | 419 kts | 338° |
| 2026-04-20 22:31 | 35.48448 | -82.62673 | 37261 ft | 420 kts | 338° |
| 2026-04-20 22:31 | 35.54166 | -82.64202 | 37253 ft | 420 kts | 338° |
| 2026-04-20 22:32 | 35.59879 | -82.65733 | 37251 ft | 421 kts | 338° |
| 2026-04-20 22:32 | 35.65604 | -82.67268 | 37241 ft | 421 kts | 338° |
| 2026-04-20 22:33 | 35.71336 | -82.68809 | 37235 ft | 421 kts | 338° |
| 2026-04-20 22:33 | 35.77069 | -82.70351 | 37227 ft | 422 kts | 338° |
| 2026-04-20 22:34 | 35.82780 | -82.71891 | 37227 ft | 422 kts | 338° |
| 2026-04-20 22:34 | 35.88527 | -82.73441 | 37238 ft | 422 kts | 338° |
| 2026-04-20 22:35 | 35.94283 | -82.74996 | 37244 ft | 422 kts | 338° |
| 2026-04-20 22:35 | 35.99987 | -82.76541 | 37259 ft | 423 kts | 338° |
| 2026-04-20 22:36 | 36.05740 | -82.78100 | 37263 ft | 423 kts | 338° |
| 2026-04-20 22:36 | 36.11500 | -82.79664 | 37271 ft | 423 kts | 338° |
| 2026-04-20 22:37 | 36.17260 | -82.81230 | 37267 ft | 423 kts | 338° |
| 2026-04-20 22:37 | 36.23014 | -82.82797 | 37270 ft | 424 kts | 338° |
| 2026-04-20 22:38 | 36.28784 | -82.84371 | 37268 ft | 424 kts | 338° |
| 2026-04-20 22:38 | 36.34514 | -82.85936 | 37259 ft | 424 kts | 338° |
| 2026-04-20 22:39 | 36.40283 | -82.87514 | 37256 ft | 424 kts | 338° |
| 2026-04-20 22:39 | 36.46058 | -82.89096 | 37251 ft | 425 kts | 338° |
| 2026-04-20 22:40 | 36.51838 | -82.90682 | 37249 ft | 425 kts | 338° |
| 2026-04-20 22:40 | 36.57616 | -82.92270 | 37252 ft | 425 kts | 338° |
| 2026-04-20 22:41 | 36.63411 | -82.93865 | 37252 ft | 426 kts | 338° |
| 2026-04-20 22:41 | 36.69179 | -82.95456 | 37262 ft | 427 kts | 338° |
| 2026-04-20 22:42 | 36.72080 | -82.96256 | 37141 ft | 427 kts | 338° |
| 2026-04-20 22:42 | 36.74970 | -82.97053 | 36895 ft | 425 kts | 338° |
| 2026-04-20 22:42 | 36.77853 | -82.97849 | 36647 ft | 424 kts | 338° |
| 2026-04-20 22:42 | 36.80746 | -82.98649 | 36401 ft | 425 kts | 338° |
| 2026-04-20 22:43 | 36.83622 | -82.99446 | 36161 ft | 424 kts | 338° |
| 2026-04-20 22:43 | 36.86488 | -83.00281 | 35922 ft | 419 kts | 334° |
| 2026-04-20 22:43 | 36.89216 | -83.01450 | 35692 ft | 410 kts | 328° |
| 2026-04-20 22:43 | 36.91833 | -83.02839 | 35449 ft | 408 kts | 327° |
| 2026-04-20 22:44 | 36.94426 | -83.04273 | 35207 ft | 407 kts | 327° |
| 2026-04-20 22:44 | 36.97017 | -83.05717 | 34998 ft | 407 kts | 327° |
| 2026-04-20 22:44 | 36.99606 | -83.07158 | 34769 ft | 407 kts | 327° |
| 2026-04-20 22:44 | 37.02196 | -83.08599 | 34533 ft | 407 kts | 327° |
| 2026-04-20 22:45 | 37.04780 | -83.10038 | 34311 ft | 406 kts | 327° |
| 2026-04-20 22:45 | 37.07331 | -83.11457 | 34056 ft | 406 kts | 327° |
| 2026-04-20 22:45 | 37.09919 | -83.12898 | 33797 ft | 406 kts | 327° |
| 2026-04-20 22:45 | 37.12499 | -83.14336 | 33526 ft | 407 kts | 327° |
| 2026-04-20 22:46 | 37.15094 | -83.15783 | 33296 ft | 408 kts | 327° |
| 2026-04-20 22:46 | 37.17687 | -83.17230 | 33032 ft | 409 kts | 327° |
| 2026-04-20 22:46 | 37.20289 | -83.18682 | 32774 ft | 410 kts | 327° |
| 2026-04-20 22:46 | 37.22897 | -83.20139 | 32515 ft | 410 kts | 327° |
| 2026-04-20 22:47 | 37.25505 | -83.21596 | 32268 ft | 411 kts | 327° |
| 2026-04-20 22:47 | 37.28129 | -83.23064 | 32020 ft | 412 kts | 327° |
| 2026-04-20 22:47 | 37.30749 | -83.24530 | 31772 ft | 413 kts | 327° |
| 2026-04-20 22:47 | 37.33375 | -83.26001 | 31522 ft | 413 kts | 327° |
| 2026-04-20 22:48 | 37.36005 | -83.27476 | 31274 ft | 414 kts | 328° |
| 2026-04-20 22:48 | 37.38634 | -83.28951 | 31033 ft | 414 kts | 328° |
| 2026-04-20 22:48 | 37.41240 | -83.30413 | 30798 ft | 415 kts | 328° |
| 2026-04-20 22:48 | 37.43880 | -83.31897 | 30562 ft | 416 kts | 328° |
| 2026-04-20 22:49 | 37.46526 | -83.33384 | 30299 ft | 417 kts | 328° |
| 2026-04-20 22:49 | 37.49174 | -83.34874 | 30013 ft | 417 kts | 328° |
| 2026-04-20 22:49 | 37.51827 | -83.36367 | 29767 ft | 417 kts | 328° |
| 2026-04-20 22:49 | 37.54482 | -83.37848 | 29474 ft | 418 kts | 328° |
| 2026-04-20 22:50 | 37.57145 | -83.39327 | 29195 ft | 418 kts | 328° |
| 2026-04-20 22:50 | 37.59806 | -83.40807 | 28924 ft | 417 kts | 328° |
| 2026-04-20 22:50 | 37.62460 | -83.42284 | 28659 ft | 418 kts | 328° |
| 2026-04-20 22:50 | 37.65117 | -83.43764 | 28393 ft | 418 kts | 328° |
| 2026-04-20 22:51 | 37.67778 | -83.45248 | 28116 ft | 418 kts | 328° |
| 2026-04-20 22:51 | 37.70440 | -83.46733 | 27861 ft | 417 kts | 328° |
| 2026-04-20 22:51 | 37.73107 | -83.48223 | 27605 ft | 418 kts | 328° |
| 2026-04-20 22:51 | 37.75734 | -83.49692 | 27353 ft | 418 kts | 328° |
| 2026-04-20 22:52 | 37.78393 | -83.51179 | 27098 ft | 417 kts | 328° |
| 2026-04-20 22:52 | 37.81047 | -83.52664 | 26849 ft | 416 kts | 328° |
| 2026-04-20 22:52 | 37.83685 | -83.54140 | 26605 ft | 413 kts | 328° |
| 2026-04-20 22:52 | 37.86266 | -83.55702 | 26357 ft | 406 kts | 323° |
| 2026-04-20 22:53 | 37.88541 | -83.57720 | 26115 ft | 393 kts | 312° |
| 2026-04-20 22:53 | 37.90432 | -83.60165 | 25877 ft | 387 kts | 307° |
| 2026-04-20 22:53 | 37.92191 | -83.62733 | 25641 ft | 384 kts | 305° |
| 2026-04-20 22:53 | 37.93910 | -83.65297 | 25405 ft | 377 kts | 305° |
| 2026-04-20 22:54 | 37.95591 | -83.67804 | 25030 ft | 368 kts | 305° |
| 2026-04-20 22:54 | 37.97237 | -83.70258 | 24582 ft | 363 kts | 305° |
| 2026-04-20 22:54 | 37.98858 | -83.72673 | 24135 ft | 357 kts | 305° |
| 2026-04-20 22:54 | 38.00441 | -83.75030 | 23653 ft | 352 kts | 306° |
| 2026-04-20 22:55 | 38.02011 | -83.77367 | 23199 ft | 345 kts | 306° |
| 2026-04-20 22:55 | 38.03554 | -83.79665 | 22771 ft | 339 kts | 306° |
| 2026-04-20 22:55 | 38.05075 | -83.81933 | 22350 ft | 337 kts | 306° |
| 2026-04-20 22:55 | 38.06595 | -83.84203 | 21908 ft | 337 kts | 306° |
| 2026-04-20 22:56 | 38.08109 | -83.86462 | 21461 ft | 335 kts | 306° |
| 2026-04-20 22:56 | 38.09615 | -83.88710 | 21029 ft | 332 kts | 306° |
| 2026-04-20 22:56 | 38.11105 | -83.90934 | 20588 ft | 332 kts | 307° |
| 2026-04-20 22:56 | 38.12706 | -83.93011 | 20127 ft | 332 kts | 314° |
| 2026-04-20 22:57 | 38.14616 | -83.94722 | 19765 ft | 331 kts | 322° |
| 2026-04-20 22:57 | 38.16578 | -83.96176 | 19348 ft | 331 kts | 324° |
| 2026-04-20 22:57 | 38.18586 | -83.97610 | 18911 ft | 331 kts | 324° |
| 2026-04-20 22:57 | 38.20591 | -83.99036 | 18447 ft | 328 kts | 324° |
| 2026-04-20 22:58 | 38.22576 | -84.00452 | 17980 ft | 325 kts | 324° |
| 2026-04-20 22:58 | 38.24539 | -84.01855 | 17542 ft | 321 kts | 324° |
| 2026-04-20 22:58 | 38.26460 | -84.03232 | 17124 ft | 318 kts | 324° |
| 2026-04-20 22:58 | 38.28400 | -84.04628 | 16491 ft | 323 kts | 325° |
| 2026-04-20 22:59 | 38.30355 | -84.06036 | 15926 ft | 321 kts | 325° |
| 2026-04-20 22:59 | 38.32283 | -84.07423 | 15490 ft | 315 kts | 325° |
| 2026-04-20 22:59 | 38.34183 | -84.08788 | 15075 ft | 310 kts | 325° |
| 2026-04-20 22:59 | 38.36050 | -84.10133 | 14660 ft | 305 kts | 326° |
| 2026-04-20 23:00 | 38.37882 | -84.11454 | 14266 ft | 300 kts | 326° |
| 2026-04-20 23:00 | 38.39689 | -84.12758 | 13837 ft | 297 kts | 326° |
| 2026-04-20 23:00 | 38.41495 | -84.14064 | 13436 ft | 299 kts | 326° |
| 2026-04-20 23:00 | 38.43308 | -84.15377 | 13043 ft | 301 kts | 326° |
| 2026-04-20 23:01 | 38.45137 | -84.16701 | 12647 ft | 302 kts | 325° |
| 2026-04-20 23:01 | 38.46947 | -84.18010 | 12256 ft | 304 kts | 325° |
| 2026-04-20 23:01 | 38.48790 | -84.19346 | 11864 ft | 306 kts | 326° |
| 2026-04-20 23:01 | 38.50647 | -84.20692 | 11466 ft | 307 kts | 326° |
| 2026-04-20 23:02 | 38.52507 | -84.22040 | 11038 ft | 308 kts | 326° |
| 2026-04-20 23:02 | 38.54334 | -84.23360 | 10871 ft | 294 kts | 326° |
| 2026-04-20 23:02 | 38.56075 | -84.24616 | 10754 ft | 280 kts | 325° |
| 2026-04-20 23:02 | 38.57736 | -84.25819 | 10634 ft | 267 kts | 325° |
| 2026-04-20 23:03 | 38.59321 | -84.26967 | 10513 ft | 256 kts | 324° |
| 2026-04-20 23:03 | 38.60841 | -84.28071 | 10390 ft | 247 kts | 324° |
| 2026-04-20 23:03 | 38.62307 | -84.29147 | 10238 ft | 238 kts | 322° |
| 2026-04-20 23:03 | 38.63592 | -84.30407 | 10104 ft | 230 kts | 309° |
| 2026-04-20 23:04 | 38.64494 | -84.32040 | 9901 ft | 227 kts | 292° |
| 2026-04-20 23:04 | 38.64919 | -84.33980 | 9627 ft | 227 kts | 277° |
| 2026-04-20 23:04 | 38.64998 | -84.36001 | 9336 ft | 227 kts | 272° |
| 2026-04-20 23:04 | 38.65000 | -84.38016 | 9096 ft | 227 kts | 271° |
| 2026-04-20 23:05 | 38.64994 | -84.40039 | 8859 ft | 227 kts | 271° |
| 2026-04-20 23:05 | 38.64993 | -84.42061 | 8618 ft | 228 kts | 271° |
| 2026-04-20 23:05 | 38.64996 | -84.44087 | 8371 ft | 227 kts | 271° |
| 2026-04-20 23:05 | 38.65001 | -84.46088 | 8202 ft | 221 kts | 271° |
| 2026-04-20 23:06 | 38.65007 | -84.47994 | 8073 ft | 216 kts | 271° |
| 2026-04-20 23:06 | 38.65021 | -84.49924 | 8004 ft | 217 kts | 274° |
| 2026-04-20 23:06 | 38.65302 | -84.51811 | 7990 ft | 217 kts | 291° |
| 2026-04-20 23:06 | 38.66169 | -84.53403 | 7651 ft | 224 kts | 316° |
| 2026-04-20 23:07 | 38.67529 | -84.54434 | 7260 ft | 231 kts | 330° |
| 2026-04-20 23:07 | 38.69014 | -84.55237 | 6914 ft | 231 kts | 332° |
| 2026-04-20 23:07 | 38.70504 | -84.56004 | 6576 ft | 230 kts | 333° |
| 2026-04-20 23:07 | 38.71961 | -84.56763 | 6243 ft | 228 kts | 332° |
| 2026-04-20 23:08 | 38.73423 | -84.57535 | 5919 ft | 226 kts | 332° |
| 2026-04-20 23:08 | 38.74406 | -84.58058 | 5695 ft | 226 kts | 332° |
| 2026-04-20 23:08 | 38.76261 | -84.59048 | 5535 ft | 208 kts | 332° |
| 2026-04-20 23:08 | 38.77568 | -84.59748 | 5305 ft | 200 kts | 332° |
| 2026-04-20 23:09 | 38.78433 | -84.60216 | 5091 ft | 199 kts | 332° |
| 2026-04-20 23:09 | 38.79697 | -84.60902 | 4666 ft | 202 kts | 332° |
| 2026-04-20 23:09 | 38.80989 | -84.61605 | 4305 ft | 201 kts | 332° |
| 2026-04-20 23:09 | 38.82267 | -84.62299 | 3974 ft | 200 kts | 333° |
| 2026-04-20 23:10 | 38.83547 | -84.62991 | 3677 ft | 197 kts | 332° |
| 2026-04-20 23:10 | 38.84797 | -84.63666 | 3383 ft | 194 kts | 332° |
| 2026-04-20 23:10 | 38.86059 | -84.64316 | 3033 ft | 197 kts | 336° |
| 2026-04-20 23:10 | 38.87399 | -84.64689 | 2828 ft | 199 kts | 348° |
| 2026-04-20 23:11 | 38.88749 | -84.64761 | 2697 ft | 188 kts | 354° |
| 2026-04-20 23:11 | 38.89980 | -84.64744 | 2577 ft | 170 kts | 354° |
| 2026-04-20 23:11 | 38.91100 | -84.64732 | 2504 ft | 154 kts | 353° |
| 2026-04-20 23:11 | 38.92176 | -84.64730 | 2498 ft | 155 kts | 353° |
| 2026-04-20 23:12 | 38.93261 | -84.64726 | 2495 ft | 155 kts | 352° |
| 2026-04-20 23:12 | 38.94336 | -84.64721 | 2495 ft | 155 kts | 353° |
| 2026-04-20 23:12 | 38.95421 | -84.64714 | 2375 ft | 157 kts | 352° |
| 2026-04-20 23:12 | 38.96502 | -84.64708 | 2122 ft | 153 kts | 352° |
| 2026-04-20 23:13 | 38.97567 | -84.64704 | 1892 ft | 153 kts | 353° |
| 2026-04-20 23:13 | 38.98636 | -84.64699 | 1657 ft | 153 kts | 354° |
| 2026-04-20 23:13 | 38.99694 | -84.64695 | 1470 ft | 154 kts | 355° |
| 2026-04-20 23:13 | 39.00764 | -84.64689 | 1230 ft | 153 kts | 357° |
| 2026-04-20 23:14 | 39.01790 | -84.64684 | 1140 ft | 142 kts | 357° |
| 2026-04-20 23:14 | 39.02759 | -84.64679 | 980 ft | 135 kts | 359° |
| 2026-04-20 23:14 | 39.03617 | -84.64678 | 908 ft | 103 kts | 359° |
| 2026-04-20 23:14 | 39.04154 | -84.64675 | 900 ft | 51 kts | 359° |
| 2026-04-20 23:15 | 39.04402 | -84.64717 | 904 ft | 19 kts | 334° |
| 2026-04-20 23:15 | 39.04468 | -84.64806 | 905 ft | 0 kts | 302° |
| 2026-04-20 23:15 | 39.04474 | -84.64817 | 904 ft | 7 kts | 302° |
| 2026-04-20 23:16 | 39.04536 | -84.64883 | 902 ft | 16 kts | 347° |
| 2026-04-20 23:16 | 39.04655 | -84.64886 | 903 ft | 17 kts | 1° |
| 2026-04-20 23:16 | 39.04793 | -84.64886 | 903 ft | 19 kts | 2° |
| 2026-04-20 23:16 | 39.04874 | -84.64957 | 901 ft | 17 kts | 269° |
| 2026-04-20 23:17 | 39.04921 | -84.65062 | 896 ft | 14 kts | 342° |
| 2026-04-20 23:17 | 39.05013 | -84.65069 | 896 ft | 13 kts | 358° |
| 2026-04-20 23:17 | 39.05081 | -84.65118 | 894 ft | 10 kts | 270° |
| 2026-04-20 23:17 | 39.05058 | -84.65194 | 893 ft | 9 kts | 253° |
| 2026-04-20 23:18 | 39.05055 | -84.65208 | 893 ft | 0 kts | 255° |